Hampton, Atlanta South Regional Airport/Tara Field (KHMP)

NameAtlanta South Regional Airport/Tara Field
CityHampton
CountryUnited States
ICAOKHMP
IATA
Altitude266 m
CoordinatesGoogle Map
Live Air TrafficLiveATC.net
METARKHMP 201155Z AUTO 00000KT 7SM CLR 15/14 A3003 RMK AO2 T01450137 10145 20134
2018-10-20 11:55:00 Wind: North (0°) 0 m/s - Visibility: 11265.38 m - Temperature: 15 °C - Dew point: 14 °C - Humidity: 93.8% - Pressure: 1016.93 hPa
Statistics

The table below shows the detailed information of all flights to/from Hampton, Atlanta South Regional Airport/Tara Field (KHMP).